sensor_id;sensor_type;location;lat;lon;timestamp;pressure;altitude;pressure_sealevel;temperature;humidity
70968;BME280;58629;48.808;8.820;2023-09-08T00:01:26;97370.22;;;14.14;100.00
70968;BME280;58629;48.808;8.820;2023-09-08T00:03:51;97362.63;;;14.13;100.00
70968;BME280;58629;48.808;8.820;2023-09-08T00:06:17;97364.97;;;14.11;100.00
70968;BME280;58629;48.808;8.820;2023-09-08T00:08:42;97368.81;;;14.10;100.00
70968;BME280;58629;48.808;8.820;2023-09-08T00:11:08;97367.09;;;14.03;100.00
70968;BME280;58629;48.808;8.820;2023-09-08T00:13:34;97362.63;;;14.00;100.00
70968;BME280;58629;48.808;8.820;2023-09-08T00:15:59;97368.03;;;13.97;100.00
70968;BME280;58629;48.808;8.820;2023-09-08T00:18:24;97363.66;;;13.90;100.00
70968;BME280;58629;48.808;8.820;2023-09-08T00:20:49;97356.81;;;13.89;100.00
70968;BME280;58629;48.808;8.820;2023-09-08T00:23:15;97361.81;;;13.87;100.00
70968;BME280;58629;48.808;8.820;2023-09-08T00:25:40;97360.00;;;13.84;100.00
70968;BME280;58629;48.808;8.820;2023-09-08T00:28:05;97358.94;;;13.81;100.00
70968;BME280;58629;48.808;8.820;2023-09-08T00:30:31;97361.22;;;13.67;100.00
70968;BME280;58629;48.808;8.820;2023-09-08T00:32:57;97359.34;;;13.51;100.00
70968;BME280;58629;48.808;8.820;2023-09-08T00:35:22;97362.34;;;13.37;100.00
70968;BME280;58629;48.808;8.820;2023-09-08T00:37:47;97360.56;;;13.34;100.00
70968;BME280;58629;48.808;8.820;2023-09-08T00:40:13;97360.03;;;13.39;100.00
70968;BME280;58629;48.808;8.820;2023-09-08T00:42:38;97363.34;;;13.43;100.00
70968;BME280;58629;48.808;8.820;2023-09-08T00:45:04;97365.28;;;13.43;100.00
70968;BME280;58629;48.808;8.820;2023-09-08T00:47:29;97359.63;;;13.41;100.00
70968;BME280;58629;48.808;8.820;2023-09-08T00:49:55;97358.13;;;13.40;100.00
70968;BME280;58629;48.808;8.820;2023-09-08T00:52:21;97350.81;;;13.44;100.00
70968;BME280;58629;48.808;8.820;2023-09-08T00:54:46;97356.34;;;13.49;100.00
70968;BME280;58629;48.808;8.820;2023-09-08T00:57:11;97358.19;;;13.52;100.00
70968;BME280;58629;48.808;8.820;2023-09-08T00:59:37;97358.28;;;13.49;100.00
70968;BME280;58629;48.808;8.820;2023-09-08T01:02:03;97352.97;;;13.49;100.00
70968;BME280;58629;48.808;8.820;2023-09-08T01:04:28;97359.44;;;13.48;100.00
70968;BME280;58629;48.808;8.820;2023-09-08T01:06:55;97353.88;;;13.42;100.00
70968;BME280;58629;48.808;8.820;2023-09-08T01:09:21;97357.13;;;13.34;100.00
70968;BME280;58629;48.808;8.820;2023-09-08T01:11:47;97353.38;;;13.31;100.00
70968;BME280;58629;48.808;8.820;2023-09-08T01:14:12;97356.91;;;13.28;100.00
70968;BME280;58629;48.808;8.820;2023-09-08T01:16:41;97346.03;;;13.23;100.00
70968;BME280;58629;48.808;8.820;2023-09-08T01:19:10;97347.19;;;13.22;100.00
70968;BME280;58629;48.808;8.820;2023-09-08T01:26:57;97352.50;;;13.22;100.00
70968;BME280;58629;48.808;8.820;2023-09-08T01:29:22;97343.03;;;13.21;100.00
70968;BME280;58629;48.808;8.820;2023-09-08T01:31:51;97347.19;;;13.22;100.00
70968;BME280;58629;48.808;8.820;2023-09-08T01:34:17;97349.84;;;13.22;100.00
70968;BME280;58629;48.808;8.820;2023-09-08T01:36:45;97352.59;;;13.18;100.00
70968;BME280;58629;48.808;8.820;2023-09-08T01:39:10;97356.09;;;13.15;100.00
70968;BME280;58629;48.808;8.820;2023-09-08T01:41:36;97350.13;;;13.11;100.00
70968;BME280;58629;48.808;8.820;2023-09-08T01:44:01;97346.69;;;13.11;100.00
70968;BME280;58629;48.808;8.820;2023-09-08T01:46:33;97342.88;;;13.12;100.00
70968;BME280;58629;48.808;8.820;2023-09-08T01:48:58;97337.38;;;13.02;100.00
70968;BME280;58629;48.808;8.820;2023-09-08T01:51:23;97341.44;;;12.75;100.00
70968;BME280;58629;48.808;8.820;2023-09-08T01:53:49;97341.44;;;12.75;100.00
70968;BME280;58629;48.808;8.820;2023-09-08T01:56:14;97345.25;;;12.74;100.00
70968;BME280;58629;48.808;8.820;2023-09-08T01:58:39;97343.50;;;12.67;100.00
70968;BME280;58629;48.808;8.820;2023-09-08T02:01:04;97349.72;;;12.61;100.00
70968;BME280;58629;48.808;8.820;2023-09-08T02:03:31;97345.91;;;12.62;100.00
70968;BME280;58629;48.808;8.820;2023-09-08T02:05:57;97340.25;;;12.60;100.00
70968;BME280;58629;48.808;8.820;2023-09-08T02:08:22;97339.19;;;12.57;100.00
70968;BME280;58629;48.808;8.820;2023-09-08T02:10:47;97337.69;;;12.56;100.00
70968;BME280;58629;48.808;8.820;2023-09-08T02:13:13;97333.53;;;12.55;100.00
70968;BME280;58629;48.808;8.820;2023-09-08T02:15:38;97336.91;;;12.56;100.00
70968;BME280;58629;48.808;8.820;2023-09-08T02:18:03;97343.00;;;12.56;100.00
70968;BME280;58629;48.808;8.820;2023-09-08T02:20:29;97341.84;;;12.57;100.00
70968;BME280;58629;48.808;8.820;2023-09-08T02:22:54;97344.88;;;12.56;100.00
70968;BME280;58629;48.808;8.820;2023-09-08T02:25:20;97340.84;;;12.51;100.00
70968;BME280;58629;48.808;8.820;2023-09-08T02:27:47;97339.66;;;12.52;100.00
70968;BME280;58629;48.808;8.820;2023-09-08T02:30:13;97338.19;;;12.51;100.00
70968;BME280;58629;48.808;8.820;2023-09-08T02:32:38;97329.03;;;12.52;100.00
70968;BME280;58629;48.808;8.820;2023-09-08T02:35:03;97331.03;;;12.48;100.00
70968;BME280;58629;48.808;8.820;2023-09-08T02:37:29;97328.03;;;12.46;100.00
70968;BME280;58629;48.808;8.820;2023-09-08T02:39:54;97329.63;;;12.44;100.00
70968;BME280;58629;48.808;8.820;2023-09-08T02:42:19;97330.00;;;12.42;100.00
70968;BME280;58629;48.808;8.820;2023-09-08T02:44:45;97334.19;;;12.43;100.00
70968;BME280;58629;48.808;8.820;2023-09-08T02:47:10;97326.63;;;12.42;100.00
70968;BME280;58629;48.808;8.820;2023-09-08T02:49:35;97340.97;;;12.44;100.00
70968;BME280;58629;48.808;8.820;2023-09-08T02:52:01;97334.19;;;12.43;100.00
70968;BME280;58629;48.808;8.820;2023-09-08T02:54:26;97331.53;;;12.43;100.00
70968;BME280;58629;48.808;8.820;2023-09-08T02:56:51;97329.63;;;12.44;100.00
70968;BME280;58629;48.808;8.820;2023-09-08T02:59:17;97328.78;;;12.47;100.00
70968;BME280;58629;48.808;8.820;2023-09-08T03:01:42;97326.47;;;12.49;100.00
70968;BME280;58629;48.808;8.820;2023-09-08T03:04:07;97331.69;;;12.52;100.00
70968;BME280;58629;48.808;8.820;2023-09-08T03:06:34;97326.72;;;12.54;100.00
70968;BME280;58629;48.808;8.820;2023-09-08T03:08:59;97332.03;;;12.54;100.00
70968;BME280;58629;48.808;8.820;2023-09-08T03:11:24;97328.53;;;12.41;100.00
70968;BME280;58629;48.808;8.820;2023-09-08T03:13:50;97332.00;;;12.38;100.00
70968;BME280;58629;48.808;8.820;2023-09-08T03:16:15;97324.44;;;12.37;100.00
70968;BME280;58629;48.808;8.820;2023-09-08T03:18:41;97318.47;;;12.33;100.00
70968;BME280;58629;48.808;8.820;2023-09-08T03:21:06;97323.88;;;12.29;100.00
70968;BME280;58629;48.808;8.820;2023-09-08T03:23:42;97316.72;;;12.26;100.00
70968;BME280;58629;48.808;8.820;2023-09-08T03:26:08;97326.53;;;12.29;100.00
70968;BME280;58629;48.808;8.820;2023-09-08T03:28:35;97324.19;;;12.31;100.00
70968;BME280;58629;48.808;8.820;2023-09-08T03:31:01;97325.28;;;12.34;100.00
70968;BME280;58629;48.808;8.820;2023-09-08T03:33:27;97332.41;;;12.37;100.00
70968;BME280;58629;48.808;8.820;2023-09-08T03:35:52;97324.44;;;12.37;100.00
70968;BME280;58629;48.808;8.820;2023-09-08T03:38:17;97326.09;;;12.31;100.00
70968;BME280;58629;48.808;8.820;2023-09-08T03:40:43;97327.81;;;12.21;100.00
70968;BME280;58629;48.808;8.820;2023-09-08T03:43:08;97324.41;;;12.20;100.00
70968;BME280;58629;48.808;8.820;2023-09-08T03:45:33;97327.16;;;12.17;100.00
70968;BME280;58629;48.808;8.820;2023-09-08T03:47:59;97322.00;;;12.10;100.00
70968;BME280;58629;48.808;8.820;2023-09-08T03:50:24;97322.38;;;12.08;100.00
70968;BME280;58629;48.808;8.820;2023-09-08T03:52:50;97324.66;;;12.10;100.00
70968;BME280;58629;48.808;8.820;2023-09-08T03:55:15;97325.78;;;12.09;100.00
70968;BME280;58629;48.808;8.820;2023-09-08T03:57:42;97329.88;;;12.13;100.00
70968;BME280;58629;48.808;8.820;2023-09-08T04:00:08;97321.41;;;12.18;100.00
70968;BME280;58629;48.808;8.820;2023-09-08T04:02:35;97325.50;;;12.23;100.00
70968;BME280;58629;48.808;8.820;2023-09-08T04:05:01;97322.59;;;12.17;100.00
70968;BME280;58629;48.808;8.820;2023-09-08T04:07:26;97321.72;;;12.04;100.00
70968;BME280;58629;48.808;8.820;2023-09-08T04:09:51;97329.41;;;11.99;100.00
70968;BME280;58629;48.808;8.820;2023-09-08T04:12:17;97324.59;;;11.94;100.00
70968;BME280;58629;48.808;8.820;2023-09-08T04:14:42;97326.09;;;11.95;100.00
70968;BME280;58629;48.808;8.820;2023-09-08T04:17:07;97331.63;;;11.84;100.00
70968;BME280;58629;48.808;8.820;2023-09-08T04:19:33;97332.84;;;11.80;100.00
70968;BME280;58629;48.808;8.820;2023-09-08T04:21:58;97324.88;;;11.80;100.00
70968;BME280;58629;48.808;8.820;2023-09-08T04:24:23;97330.19;;;11.80;100.00
70968;BME280;58629;48.808;8.820;2023-09-08T04:26:49;97334.47;;;11.74;100.00
70968;BME280;58629;48.808;8.820;2023-09-08T04:29:14;97334.88;;;11.72;100.00
70968;BME280;58629;48.808;8.820;2023-09-08T04:31:40;97332.63;;;11.71;100.00
70968;BME280;58629;48.808;8.820;2023-09-08T04:34:05;97335.94;;;11.75;100.00
70968;BME280;58629;48.808;8.820;2023-09-08T04:36:30;97338.25;;;11.73;100.00
70968;BME280;58629;48.808;8.820;2023-09-08T04:38:56;97343.00;;;11.62;100.00
70968;BME280;58629;48.808;8.820;2023-09-08T04:41:21;97341.84;;;11.63;100.00
70968;BME280;58629;48.808;8.820;2023-09-08T04:43:46;97343.34;;;11.64;100.00
70968;BME280;58629;48.808;8.820;2023-09-08T04:46:12;97344.91;;;11.61;100.00
70968;BME280;58629;48.808;8.820;2023-09-08T04:48:37;97346.06;;;11.60;100.00
70968;BME280;58629;48.808;8.820;2023-09-08T04:51:02;97349.13;;;11.59;100.00
70968;BME280;58629;48.808;8.820;2023-09-08T04:53:28;97351.28;;;11.64;100.00
70968;BME280;58629;48.808;8.820;2023-09-08T04:55:53;97341.06;;;11.66;100.00
70968;BME280;58629;48.808;8.820;2023-09-08T04:58:18;97347.38;;;11.72;100.00
70968;BME280;58629;48.808;8.820;2023-09-08T05:00:44;97351.53;;;11.73;100.00
70968;BME280;58629;48.808;8.820;2023-09-08T05:03:09;97355.28;;;11.75;100.00
70968;BME280;58629;48.808;8.820;2023-09-08T05:05:34;97351.00;;;11.81;100.00
70968;BME280;58629;48.808;8.820;2023-09-08T05:07:59;97348.25;;;11.85;100.00
70968;BME280;58629;48.808;8.820;2023-09-08T05:10:25;97347.81;;;11.90;100.00
70968;BME280;58629;48.808;8.820;2023-09-08T05:12:51;97365.13;;;11.94;100.00
70968;BME280;58629;48.808;8.820;2023-09-08T05:15:16;97360.16;;;11.96;100.00
70968;BME280;58629;48.808;8.820;2023-09-08T05:17:42;97362.47;;;11.94;100.00
70968;BME280;58629;48.808;8.820;2023-09-08T05:20:09;97358.28;;;11.97;100.00
70968;BME280;58629;48.808;8.820;2023-09-08T05:22:34;97357.06;;;12.01;100.00
70968;BME280;58629;48.808;8.820;2023-09-08T05:24:59;97355.88;;;12.02;100.00
70968;BME280;58629;48.808;8.820;2023-09-08T05:27:25;97358.16;;;12.04;100.00
70968;BME280;58629;48.808;8.820;2023-09-08T05:29:50;97360.81;;;12.04;100.00
70968;BME280;58629;48.808;8.820;2023-09-08T05:32:15;97357.31;;;12.07;100.00
70968;BME280;58629;48.808;8.820;2023-09-08T05:34:41;97361.13;;;12.06;100.00
70968;BME280;58629;48.808;8.820;2023-09-08T05:37:06;97366.72;;;12.11;100.00
70968;BME280;58629;48.808;8.820;2023-09-08T05:39:32;97364.84;;;12.08;100.00
70968;BME280;58629;48.808;8.820;2023-09-08T05:41:57;97370.13;;;12.12;100.00
70968;BME280;58629;48.808;8.820;2023-09-08T05:44:22;97368.94;;;12.13;100.00
70968;BME280;58629;48.808;8.820;2023-09-08T05:46:47;97375.00;;;12.13;100.00
70968;BME280;58629;48.808;8.820;2023-09-08T05:49:13;97370.84;;;12.12;100.00
70968;BME280;58629;48.808;8.820;2023-09-08T05:51:39;97378.47;;;12.10;100.00
70968;BME280;58629;48.808;8.820;2023-09-08T05:54:05;97378.09;;;12.12;100.00
70968;BME280;58629;48.808;8.820;2023-09-08T05:56:31;97375.69;;;12.17;100.00
70968;BME280;58629;48.808;8.820;2023-09-08T05:58:57;97381.09;;;12.30;100.00
70968;BME280;58629;48.808;8.820;2023-09-08T06:01:23;97380.09;;;12.44;100.00
70968;BME280;58629;48.808;8.820;2023-09-08T06:03:49;97376.94;;;12.49;100.00
70968;BME280;58629;48.808;8.820;2023-09-08T06:06:14;97371.53;;;12.52;100.00
70968;BME280;58629;48.808;8.820;2023-09-08T06:08:40;97371.41;;;12.59;100.00
70968;BME280;58629;48.808;8.820;2023-09-08T06:11:05;97369.00;;;12.65;100.00
70968;BME280;58629;48.808;8.820;2023-09-08T06:13:30;97365.78;;;12.73;100.00
70968;BME280;58629;48.808;8.820;2023-09-08T06:15:55;97367.44;;;12.83;100.00
70968;BME280;58629;48.808;8.820;2023-09-08T06:18:21;97366.38;;;12.97;100.00
70968;BME280;58629;48.808;8.820;2023-09-08T06:20:47;97363.47;;;13.07;100.00
70968;BME280;58629;48.808;8.820;2023-09-08T06:23:13;97365.47;;;13.20;100.00
70968;BME280;58629;48.808;8.820;2023-09-08T06:25:38;97369.00;;;13.29;100.00
70968;BME280;58629;48.808;8.820;2023-09-08T06:28:04;97366.44;;;13.42;100.00
70968;BME280;58629;48.808;8.820;2023-09-08T06:30:29;97358.91;;;13.53;100.00
70968;BME280;58629;48.808;8.820;2023-09-08T06:32:54;97361.97;;;13.67;100.00
70968;BME280;58629;48.808;8.820;2023-09-08T06:35:20;97358.19;;;13.81;100.00
70968;BME280;58629;48.808;8.820;2023-09-08T06:37:45;97363.44;;;13.97;100.00
70968;BME280;58629;48.808;8.820;2023-09-08T06:40:10;97358.06;;;14.13;100.00
70968;BME280;58629;48.808;8.820;2023-09-08T06:42:36;97360.31;;;14.27;100.00
70968;BME280;58629;48.808;8.820;2023-09-08T06:45:01;97361.75;;;14.44;100.00
70968;BME280;58629;48.808;8.820;2023-09-08T06:47:26;97360.91;;;14.60;100.00
70968;BME280;58629;48.808;8.820;2023-09-08T06:49:52;97364.22;;;14.76;100.00
70968;BME280;58629;48.808;8.820;2023-09-08T06:52:17;97359.84;;;14.95;100.00
70968;BME280;58629;48.808;8.820;2023-09-08T06:54:43;97362.38;;;15.11;100.00
70968;BME280;58629;48.808;8.820;2023-09-08T06:57:11;97364.16;;;15.27;100.00
70968;BME280;58629;48.808;8.820;2023-09-08T06:59:36;97365.19;;;15.42;100.00
70968;BME280;58629;48.808;8.820;2023-09-08T07:02:01;97367.72;;;15.58;100.00
70968;BME280;58629;48.808;8.820;2023-09-08T07:04:27;97371.06;;;15.71;100.00
70968;BME280;58629;48.808;8.820;2023-09-08T07:06:52;97366.13;;;15.82;100.00
70968;BME280;58629;48.808;8.820;2023-09-08T07:09:20;97364.44;;;15.97;100.00
70968;BME280;58629;48.808;8.820;2023-09-08T07:11:45;97368.06;;;16.12;100.00
70968;BME280;58629;48.808;8.820;2023-09-08T07:14:10;97364.03;;;16.29;100.00
70968;BME280;58629;48.808;8.820;2023-09-08T07:16:36;97363.94;;;16.42;100.00
70968;BME280;58629;48.808;8.820;2023-09-08T07:19:01;97361.38;;;16.60;100.00
70968;BME280;58629;48.808;8.820;2023-09-08T07:21:27;97359.66;;;16.75;100.00
70968;BME280;58629;48.808;8.820;2023-09-08T07:23:52;97362.09;;;16.91;100.00
70968;BME280;58629;48.808;8.820;2023-09-08T07:26:19;97359.59;;;17.06;99.53
70968;BME280;58629;48.808;8.820;2023-09-08T07:28:44;97358.88;;;17.23;99.33
70968;BME280;58629;48.808;8.820;2023-09-08T07:31:10;97361.56;;;17.42;99.30
70968;BME280;58629;48.808;8.820;2023-09-08T07:33:36;97353.75;;;17.56;97.62
70968;BME280;58629;48.808;8.820;2023-09-08T07:36:06;97349.72;;;17.70;96.73
70968;BME280;58629;48.808;8.820;2023-09-08T07:38:31;97357.44;;;17.86;96.92
70968;BME280;58629;48.808;8.820;2023-09-08T07:40:57;97356.84;;;18.00;96.09
70968;BME280;58629;48.808;8.820;2023-09-08T07:43:25;97351.44;;;18.18;95.95
70968;BME280;58629;48.808;8.820;2023-09-08T07:45:50;97347.97;;;18.36;94.90
70968;BME280;58629;48.808;8.820;2023-09-08T07:48:15;97354.19;;;18.51;94.52
70968;BME280;58629;48.808;8.820;2023-09-08T07:50:40;97358.28;;;18.70;94.21
70968;BME280;58629;48.808;8.820;2023-09-08T07:53:06;97359.88;;;18.85;93.70
70968;BME280;58629;48.808;8.820;2023-09-08T07:55:31;97366.50;;;18.99;92.69
70968;BME280;58629;48.808;8.820;2023-09-08T07:57:57;97361.06;;;19.08;90.63
70968;BME280;58629;48.808;8.820;2023-09-08T08:00:23;97368.56;;;19.28;90.80
70968;BME280;58629;48.808;8.820;2023-09-08T08:02:51;97351.50;;;19.40;89.57
70968;BME280;58629;48.808;8.820;2023-09-08T08:05:16;97361.06;;;19.55;89.59
70968;BME280;58629;48.808;8.820;2023-09-08T08:07:43;97357.22;;;19.71;89.56
70968;BME280;58629;48.808;8.820;2023-09-08T08:10:09;97364.13;;;19.86;87.72
70968;BME280;58629;48.808;8.820;2023-09-08T08:12:35;97358.56;;;20.05;87.35
70968;BME280;58629;48.808;8.820;2023-09-08T08:15:00;97353.50;;;20.21;86.34
70968;BME280;58629;48.808;8.820;2023-09-08T08:17:26;97349.13;;;20.38;86.19
70968;BME280;58629;48.808;8.820;2023-09-08T08:19:55;97354.28;;;20.56;85.09
70968;BME280;58629;48.808;8.820;2023-09-08T08:22:21;97357.25;;;20.73;84.30
70968;BME280;58629;48.808;8.820;2023-09-08T08:24:47;97355.25;;;20.88;84.05
70968;BME280;58629;48.808;8.820;2023-09-08T08:27:12;97358.81;;;21.00;82.32
70968;BME280;58629;48.808;8.820;2023-09-08T08:29:38;97355.00;;;21.21;83.19
70968;BME280;58629;48.808;8.820;2023-09-08T08:32:04;97348.59;;;21.38;83.38
70968;BME280;58629;48.808;8.820;2023-09-08T08:34:29;97350.19;;;21.50;80.81
70968;BME280;58629;48.808;8.820;2023-09-08T08:36:55;97348.94;;;21.72;80.92
70968;BME280;58629;48.808;8.820;2023-09-08T08:39:20;97348.63;;;21.84;79.40
70968;BME280;58629;48.808;8.820;2023-09-08T08:41:45;97349.25;;;21.99;78.10
70968;BME280;58629;48.808;8.820;2023-09-08T08:44:11;97336.94;;;22.18;77.85
70968;BME280;58629;48.808;8.820;2023-09-08T08:46:37;97347.06;;;22.29;78.49
70968;BME280;58629;48.808;8.820;2023-09-08T08:49:03;97344.03;;;22.47;77.81
70968;BME280;58629;48.808;8.820;2023-09-08T08:51:30;97351.03;;;22.65;78.22
70968;BME280;58629;48.808;8.820;2023-09-08T08:53:56;97353.63;;;22.85;76.83
70968;BME280;58629;48.808;8.820;2023-09-08T08:56:22;97339.22;;;22.99;76.73
70968;BME280;58629;48.808;8.820;2023-09-08T08:58:49;97340.75;;;23.11;74.57
70968;BME280;58629;48.808;8.820;2023-09-08T09:01:16;97344.25;;;23.22;73.69
70968;BME280;58629;48.808;8.820;2023-09-08T09:03:46;97339.66;;;23.34;73.45
70968;BME280;58629;48.808;8.820;2023-09-08T09:06:13;97338.97;;;23.45;72.70
70968;BME280;58629;48.808;8.820;2023-09-08T09:08:41;97327.94;;;23.59;72.42
70968;BME280;58629;48.808;8.820;2023-09-08T09:11:08;97331.66;;;23.67;71.72
70968;BME280;58629;48.808;8.820;2023-09-08T09:13:33;97332.44;;;23.79;70.90
70968;BME280;58629;48.808;8.820;2023-09-08T09:15:59;97334.91;;;23.93;70.85
70968;BME280;58629;48.808;8.820;2023-09-08T09:18:26;97344.03;;;24.07;70.36
70968;BME280;58629;48.808;8.820;2023-09-08T09:20:56;97340.88;;;24.14;68.90
70968;BME280;58629;48.808;8.820;2023-09-08T09:23:34;97340.38;;;24.21;68.61
70968;BME280;58629;48.808;8.820;2023-09-08T09:26:01;97333.00;;;24.44;68.42
70968;BME280;58629;48.808;8.820;2023-09-08T09:28:29;97334.44;;;24.50;68.45
70968;BME280;58629;48.808;8.820;2023-09-08T09:30:55;97335.69;;;24.49;66.74
70968;BME280;58629;48.808;8.820;2023-09-08T09:33:21;97336.41;;;24.61;66.08
70968;BME280;58629;48.808;8.820;2023-09-08T09:35:52;97340.09;;;24.74;65.68
70968;BME280;58629;48.808;8.820;2023-09-08T09:38:19;97335.88;;;24.90;67.24
70968;BME280;58629;48.808;8.820;2023-09-08T09:40:46;97329.44;;;25.10;66.24
70968;BME280;58629;48.808;8.820;2023-09-08T09:43:14;97329.44;;;25.15;64.55
70968;BME280;58629;48.808;8.820;2023-09-08T09:45:41;97327.91;;;25.20;65.04
70968;BME280;58629;48.808;8.820;2023-09-08T09:48:08;97328.34;;;25.35;64.06
70968;BME280;58629;48.808;8.820;2023-09-08T09:50:36;97329.78;;;25.52;64.25
70968;BME280;58629;48.808;8.820;2023-09-08T09:53:07;97331.00;;;25.57;64.28
70968;BME280;58629;48.808;8.820;2023-09-08T09:55:33;97320.03;;;25.73;63.79
70968;BME280;58629;48.808;8.820;2023-09-08T09:58:01;97317.53;;;25.81;63.94
70968;BME280;58629;48.808;8.820;2023-09-08T10:00:31;97329.19;;;25.70;62.64
70968;BME280;58629;48.808;8.820;2023-09-08T10:02:58;97318.78;;;25.80;62.59
70968;BME280;58629;48.808;8.820;2023-09-08T10:05:24;97321.38;;;25.97;62.37
70968;BME280;58629;48.808;8.820;2023-09-08T10:07:51;97327.75;;;26.05;62.44
70968;BME280;58629;48.808;8.820;2023-09-08T10:10:17;97324.72;;;26.14;62.10
70968;BME280;58629;48.808;8.820;2023-09-08T10:12:44;97319.53;;;26.16;61.31
70968;BME280;58629;48.808;8.820;2023-09-08T10:15:14;97322.94;;;26.22;61.24
70968;BME280;58629;48.808;8.820;2023-09-08T10:17:44;97323.13;;;26.29;60.54
70968;BME280;58629;48.808;8.820;2023-09-08T10:20:10;97324.28;;;26.39;60.92
70968;BME280;58629;48.808;8.820;2023-09-08T10:22:41;97317.06;;;26.47;61.02
70968;BME280;58629;48.808;8.820;2023-09-08T10:25:12;97314.44;;;26.60;61.11
70968;BME280;58629;48.808;8.820;2023-09-08T10:27:38;97312.91;;;26.71;60.46
70968;BME280;58629;48.808;8.820;2023-09-08T10:30:05;97316.63;;;26.68;59.41
70968;BME280;58629;48.808;8.820;2023-09-08T10:32:35;97318.00;;;26.80;60.75
70968;BME280;58629;48.808;8.820;2023-09-08T10:35:03;97313.81;;;26.79;59.40
70968;BME280;58629;48.808;8.820;2023-09-08T10:37:29;97317.56;;;27.00;60.02
70968;BME280;58629;48.808;8.820;2023-09-08T10:40:22;97316.44;;;27.08;60.08
70968;BME280;58629;48.808;8.820;2023-09-08T10:42:47;97316.38;;;27.14;58.25
70968;BME280;58629;48.808;8.820;2023-09-08T10:45:19;97310.28;;;27.26;57.79
70968;BME280;58629;48.808;8.820;2023-09-08T10:50:22;97306.00;;;27.36;58.56
70968;BME280;58629;48.808;8.820;2023-09-08T10:53:08;97296.38;;;27.35;57.21
70968;BME280;58629;48.808;8.820;2023-09-08T10:55:56;97303.78;;;27.54;57.03
70968;BME280;58629;48.808;8.820;2023-09-08T10:58:33;97308.00;;;27.55;56.75
70968;BME280;58629;48.808;8.820;2023-09-08T11:01:00;97304.31;;;27.52;57.02
70968;BME280;58629;48.808;8.820;2023-09-08T11:03:46;97307.16;;;27.60;55.74
70968;BME280;58629;48.808;8.820;2023-09-08T11:06:15;97305.63;;;27.45;55.32
70968;BME280;58629;48.808;8.820;2023-09-08T11:08:42;97309.16;;;27.59;58.36
70968;BME280;58629;48.808;8.820;2023-09-08T11:11:10;97308.72;;;27.55;57.57
70968;BME280;58629;48.808;8.820;2023-09-08T11:13:36;97302.28;;;27.71;56.16
70968;BME280;58629;48.808;8.820;2023-09-08T11:16:03;97303.47;;;27.76;55.68
70968;BME280;58629;48.808;8.820;2023-09-08T11:18:29;97306.97;;;27.89;54.44
70968;BME280;58629;48.808;8.820;2023-09-08T11:20:55;97297.75;;;27.98;54.40
70968;BME280;58629;48.808;8.820;2023-09-08T11:23:21;97299.25;;;28.12;54.76
70968;BME280;58629;48.808;8.820;2023-09-08T11:25:48;97297.91;;;28.18;55.48
70968;BME280;58629;48.808;8.820;2023-09-08T11:28:14;97298.63;;;28.19;55.24
70968;BME280;58629;48.808;8.820;2023-09-08T11:30:39;97300.00;;;28.25;54.35
70968;BME280;58629;48.808;8.820;2023-09-08T11:33:16;97298.47;;;28.30;53.37
70968;BME280;58629;48.808;8.820;2023-09-08T11:35:42;97300.66;;;28.45;54.08
70968;BME280;58629;48.808;8.820;2023-09-08T11:38:10;97305.78;;;28.35;53.11
70968;BME280;58629;48.808;8.820;2023-09-08T11:40:36;97301.84;;;28.49;52.91
70968;BME280;58629;48.808;8.820;2023-09-08T11:43:02;97294.72;;;28.46;53.18
70968;BME280;58629;48.808;8.820;2023-09-08T11:45:30;97298.66;;;28.64;52.97
70968;BME280;58629;48.808;8.820;2023-09-08T11:47:55;97310.41;;;28.72;54.00
70968;BME280;58629;48.808;8.820;2023-09-08T11:50:21;97306.06;;;28.76;53.10
70968;BME280;58629;48.808;8.820;2023-09-08T11:52:49;97296.59;;;28.51;52.87
70968;BME280;58629;48.808;8.820;2023-09-08T11:55:15;97301.72;;;28.42;52.41
70968;BME280;58629;48.808;8.820;2023-09-08T11:57:43;97301.53;;;28.53;52.78
70968;BME280;58629;48.808;8.820;2023-09-08T12:00:10;97297.06;;;28.68;53.25
70968;BME280;58629;48.808;8.820;2023-09-08T12:02:39;97300.75;;;28.84;52.21
70968;BME280;58629;48.808;8.820;2023-09-08T12:05:05;97296.53;;;28.83;52.06
70968;BME280;58629;48.808;8.820;2023-09-08T12:07:31;97297.28;;;28.96;51.53
70968;BME280;58629;48.808;8.820;2023-09-08T12:09:57;97298.09;;;29.04;51.70
70968;BME280;58629;48.808;8.820;2023-09-08T12:12:25;97297.06;;;29.21;51.51
70968;BME280;58629;48.808;8.820;2023-09-08T12:14:50;97298.44;;;29.27;51.21
70968;BME280;58629;48.808;8.820;2023-09-08T12:17:15;97293.75;;;29.48;51.32
70968;BME280;58629;48.808;8.820;2023-09-08T12:19:43;97297.63;;;29.53;50.96
70968;BME280;58629;48.808;8.820;2023-09-08T12:22:08;97293.59;;;29.67;50.20
70968;BME280;58629;48.808;8.820;2023-09-08T12:27:22;97298.25;;;28.86;51.51
70968;BME280;58629;48.808;8.820;2023-09-08T12:32:17;97296.13;;;29.18;51.25
70968;BME280;58629;48.808;8.820;2023-09-08T12:34:43;97286.47;;;29.30;50.24
70968;BME280;58629;48.808;8.820;2023-09-08T12:37:09;97286.03;;;29.39;50.21
70968;BME280;58629;48.808;8.820;2023-09-08T12:39:36;97280.97;;;29.43;49.97
70968;BME280;58629;48.808;8.820;2023-09-08T12:42:03;97276.22;;;29.57;50.15
70968;BME280;58629;48.808;8.820;2023-09-08T12:44:29;97274.13;;;29.50;50.97
70968;BME280;58629;48.808;8.820;2023-09-08T12:46:54;97277.06;;;29.52;49.86
70968;BME280;58629;48.808;8.820;2023-09-08T12:49:19;97270.34;;;29.19;49.78
70968;BME280;58629;48.808;8.820;2023-09-08T12:51:45;97273.06;;;29.53;50.03
70968;BME280;58629;48.808;8.820;2023-09-08T12:54:10;97265.72;;;29.61;49.11
70968;BME280;58629;48.808;8.820;2023-09-08T12:56:35;97265.56;;;29.66;49.83
70968;BME280;58629;48.808;8.820;2023-09-08T12:59:00;97263.34;;;29.78;49.84
70968;BME280;58629;48.808;8.820;2023-09-08T13:01:26;97259.91;;;29.98;48.62
70968;BME280;58629;48.808;8.820;2023-09-08T13:03:51;97260.03;;;29.59;48.97